sensor_id;sensor_type;location;lat;lon;timestamp;temperature;humidity
33943;DHT22;66763;47.856;17.462;2023-03-23T00:01:13;12.20;50.60
33943;DHT22;66763;47.856;17.462;2023-03-23T00:03:40;12.30;50.60
33943;DHT22;66763;47.856;17.462;2023-03-23T00:06:06;12.30;50.60
33943;DHT22;66763;47.856;17.462;2023-03-23T00:08:33;12.20;50.60
33943;DHT22;66763;47.856;17.462;2023-03-23T00:10:58;12.30;50.60
33943;DHT22;66763;47.856;17.462;2023-03-23T00:13:26;12.30;50.60
33943;DHT22;66763;47.856;17.462;2023-03-23T00:15:52;12.30;50.60
33943;DHT22;66763;47.856;17.462;2023-03-23T00:18:18;12.20;50.50
33943;DHT22;66763;47.856;17.462;2023-03-23T00:20:46;12.20;50.50
33943;DHT22;66763;47.856;17.462;2023-03-23T00:23:15;12.30;50.60
33943;DHT22;66763;47.856;17.462;2023-03-23T00:25:47;12.30;50.60
33943;DHT22;66763;47.856;17.462;2023-03-23T00:28:13;12.20;50.50
33943;DHT22;66763;47.856;17.462;2023-03-23T00:30:40;12.20;50.50
33943;DHT22;66763;47.856;17.462;2023-03-23T00:33:07;12.30;50.70
33943;DHT22;66763;47.856;17.462;2023-03-23T00:35:33;12.20;50.60
33943;DHT22;66763;47.856;17.462;2023-03-23T00:37:59;12.30;50.60
33943;DHT22;66763;47.856;17.462;2023-03-23T00:40:25;12.30;50.60
33943;DHT22;66763;47.856;17.462;2023-03-23T00:42:51;12.30;50.70
33943;DHT22;66763;47.856;17.462;2023-03-23T00:45:17;12.20;50.60
33943;DHT22;66763;47.856;17.462;2023-03-23T00:47:42;12.30;50.60
33943;DHT22;66763;47.856;17.462;2023-03-23T00:50:12;12.30;50.60
33943;DHT22;66763;47.856;17.462;2023-03-23T00:52:39;12.30;50.60
33943;DHT22;66763;47.856;17.462;2023-03-23T00:55:05;12.30;50.60
33943;DHT22;66763;47.856;17.462;2023-03-23T00:57:31;12.30;50.60
33943;DHT22;66763;47.856;17.462;2023-03-23T00:59:56;12.30;50.70
33943;DHT22;66763;47.856;17.462;2023-03-23T01:02:22;12.30;50.60
33943;DHT22;66763;47.856;17.462;2023-03-23T01:04:50;12.30;50.60
33943;DHT22;66763;47.856;17.462;2023-03-23T01:07:20;12.30;50.70
33943;DHT22;66763;47.856;17.462;2023-03-23T01:09:46;12.30;50.70
33943;DHT22;66763;47.856;17.462;2023-03-23T01:12:13;12.30;50.60
33943;DHT22;66763;47.856;17.462;2023-03-23T01:14:40;12.20;50.60
33943;DHT22;66763;47.856;17.462;2023-03-23T01:17:05;12.20;50.70
33943;DHT22;66763;47.856;17.462;2023-03-23T01:19:31;12.30;50.70
33943;DHT22;66763;47.856;17.462;2023-03-23T01:21:57;12.30;50.70
33943;DHT22;66763;47.856;17.462;2023-03-23T01:24:22;12.30;50.70
33943;DHT22;66763;47.856;17.462;2023-03-23T01:26:48;12.20;50.60
33943;DHT22;66763;47.856;17.462;2023-03-23T01:29:13;12.30;50.70
33943;DHT22;66763;47.856;17.462;2023-03-23T01:31:39;12.30;50.70
33943;DHT22;66763;47.856;17.462;2023-03-23T01:34:04;12.30;50.70
33943;DHT22;66763;47.856;17.462;2023-03-23T01:36:30;12.30;50.70
33943;DHT22;66763;47.856;17.462;2023-03-23T01:38:58;12.20;50.70
33943;DHT22;66763;47.856;17.462;2023-03-23T01:41:24;12.30;50.70
33943;DHT22;66763;47.856;17.462;2023-03-23T01:46:30;12.30;50.70
33943;DHT22;66763;47.856;17.462;2023-03-23T01:48:56;12.30;50.70
33943;DHT22;66763;47.856;17.462;2023-03-23T01:51:23;12.30;50.70
33943;DHT22;66763;47.856;17.462;2023-03-23T01:53:54;12.30;50.70
33943;DHT22;66763;47.856;17.462;2023-03-23T01:56:21;12.30;50.70
33943;DHT22;66763;47.856;17.462;2023-03-23T01:58:52;12.30;50.70
33943;DHT22;66763;47.856;17.462;2023-03-23T02:01:18;12.30;50.70
33943;DHT22;66763;47.856;17.462;2023-03-23T02:03:46;12.30;50.70
33943;DHT22;66763;47.856;17.462;2023-03-23T02:06:13;12.30;50.70
33943;DHT22;66763;47.856;17.462;2023-03-23T02:08:40;12.30;50.70
33943;DHT22;66763;47.856;17.462;2023-03-23T02:11:17;12.30;50.70
33943;DHT22;66763;47.856;17.462;2023-03-23T02:13:43;12.30;50.70
33943;DHT22;66763;47.856;17.462;2023-03-23T02:16:14;12.30;50.70
33943;DHT22;66763;47.856;17.462;2023-03-23T02:19:02;12.30;50.70
33943;DHT22;66763;47.856;17.462;2023-03-23T02:24:21;12.30;50.70
33943;DHT22;66763;47.856;17.462;2023-03-23T02:27:01;12.30;50.70
33943;DHT22;66763;47.856;17.462;2023-03-23T02:34:42;12.30;50.70
33943;DHT22;66763;47.856;17.462;2023-03-23T02:37:24;12.20;50.60
33943;DHT22;66763;47.856;17.462;2023-03-23T02:39:55;12.30;50.70
33943;DHT22;66763;47.856;17.462;2023-03-23T02:42:23;12.20;50.70
33943;DHT22;66763;47.856;17.462;2023-03-23T02:44:50;12.20;50.70
33943;DHT22;66763;47.856;17.462;2023-03-23T02:47:20;12.30;50.70
33943;DHT22;66763;47.856;17.462;2023-03-23T02:49:46;12.20;50.60
33943;DHT22;66763;47.856;17.462;2023-03-23T02:52:15;12.30;50.60
33943;DHT22;66763;47.856;17.462;2023-03-23T02:54:42;12.30;50.70
33943;DHT22;66763;47.856;17.462;2023-03-23T02:57:09;12.30;50.70
33943;DHT22;66763;47.856;17.462;2023-03-23T02:59:35;12.30;50.70
33943;DHT22;66763;47.856;17.462;2023-03-23T03:02:10;12.30;50.70
33943;DHT22;66763;47.856;17.462;2023-03-23T03:04:38;12.30;50.70
33943;DHT22;66763;47.856;17.462;2023-03-23T03:07:07;12.30;50.70
33943;DHT22;66763;47.856;17.462;2023-03-23T03:12:24;12.30;50.70
33943;DHT22;66763;47.856;17.462;2023-03-23T03:15:17;12.30;50.70
33943;DHT22;66763;47.856;17.462;2023-03-23T03:17:40;12.30;50.80
33943;DHT22;66763;47.856;17.462;2023-03-23T03:20:08;12.20;50.70
33943;DHT22;66763;47.856;17.462;2023-03-23T03:22:39;12.30;50.80
33943;DHT22;66763;47.856;17.462;2023-03-23T03:25:07;12.30;50.70
33943;DHT22;66763;47.856;17.462;2023-03-23T03:27:33;12.30;50.70
33943;DHT22;66763;47.856;17.462;2023-03-23T03:30:00;12.30;50.80
33943;DHT22;66763;47.856;17.462;2023-03-23T03:32:33;12.30;50.80
33943;DHT22;66763;47.856;17.462;2023-03-23T03:35:01;12.30;50.70
33943;DHT22;66763;47.856;17.462;2023-03-23T03:37:32;12.30;50.80
33943;DHT22;66763;47.856;17.462;2023-03-23T03:39:58;12.30;50.70
33943;DHT22;66763;47.856;17.462;2023-03-23T03:42:23;12.30;50.80
33943;DHT22;66763;47.856;17.462;2023-03-23T03:44:48;12.30;50.80
33943;DHT22;66763;47.856;17.462;2023-03-23T03:47:14;12.30;50.80
33943;DHT22;66763;47.856;17.462;2023-03-23T03:49:39;12.20;50.70
33943;DHT22;66763;47.856;17.462;2023-03-23T03:52:05;12.30;50.80
33943;DHT22;66763;47.856;17.462;2023-03-23T03:54:31;12.30;50.80
33943;DHT22;66763;47.856;17.462;2023-03-23T03:56:56;12.30;50.80
33943;DHT22;66763;47.856;17.462;2023-03-23T03:59:23;12.30;50.90
33943;DHT22;66763;47.856;17.462;2023-03-23T04:01:48;12.30;50.80
33943;DHT22;66763;47.856;17.462;2023-03-23T04:04:19;12.30;50.80
33943;DHT22;66763;47.856;17.462;2023-03-23T04:06:45;12.30;50.90
33943;DHT22;66763;47.856;17.462;2023-03-23T04:09:10;12.30;50.90
33943;DHT22;66763;47.856;17.462;2023-03-23T04:11:37;12.30;50.90
33943;DHT22;66763;47.856;17.462;2023-03-23T04:14:02;12.30;50.90
33943;DHT22;66763;47.856;17.462;2023-03-23T04:16:28;12.30;50.90
33943;DHT22;66763;47.856;17.462;2023-03-23T04:18:55;12.30;50.90
33943;DHT22;66763;47.856;17.462;2023-03-23T04:21:21;12.30;51.00
33943;DHT22;66763;47.856;17.462;2023-03-23T04:23:46;12.30;50.90
33943;DHT22;66763;47.856;17.462;2023-03-23T04:26:12;12.30;50.90
33943;DHT22;66763;47.856;17.462;2023-03-23T04:28:38;12.30;51.00
33943;DHT22;66763;47.856;17.462;2023-03-23T04:31:04;12.20;50.80
33943;DHT22;66763;47.856;17.462;2023-03-23T04:33:29;12.30;50.80
33943;DHT22;66763;47.856;17.462;2023-03-23T04:35:56;12.20;50.90
33943;DHT22;66763;47.856;17.462;2023-03-23T04:38:22;12.20;50.90
33943;DHT22;66763;47.856;17.462;2023-03-23T04:40:49;12.30;51.00
33943;DHT22;66763;47.856;17.462;2023-03-23T04:43:21;12.20;50.90
33943;DHT22;66763;47.856;17.462;2023-03-23T04:45:57;12.20;50.90
33943;DHT22;66763;47.856;17.462;2023-03-23T04:48:23;12.30;50.80
33943;DHT22;66763;47.856;17.462;2023-03-23T04:50:48;12.30;51.00
33943;DHT22;66763;47.856;17.462;2023-03-23T04:53:16;12.30;50.90
33943;DHT22;66763;47.856;17.462;2023-03-23T04:55:43;12.30;50.90
33943;DHT22;66763;47.856;17.462;2023-03-23T04:58:09;12.30;51.00
33943;DHT22;66763;47.856;17.462;2023-03-23T05:00:35;12.20;51.00
33943;DHT22;66763;47.856;17.462;2023-03-23T05:03:01;12.20;50.80
33943;DHT22;66763;47.856;17.462;2023-03-23T05:05:27;12.30;51.00
33943;DHT22;66763;47.856;17.462;2023-03-23T05:07:54;12.20;51.00
33943;DHT22;66763;47.856;17.462;2023-03-23T05:10:20;12.20;50.90
33943;DHT22;66763;47.856;17.462;2023-03-23T05:12:46;12.20;50.90
33943;DHT22;66763;47.856;17.462;2023-03-23T05:15:12;12.30;50.80
33943;DHT22;66763;47.856;17.462;2023-03-23T05:17:38;12.30;50.80
33943;DHT22;66763;47.856;17.462;2023-03-23T05:20:05;12.30;51.30
33943;DHT22;66763;47.856;17.462;2023-03-23T05:22:36;12.30;50.60
33943;DHT22;66763;47.856;17.462;2023-03-23T05:25:02;12.30;50.60
33943;DHT22;66763;47.856;17.462;2023-03-23T05:27:28;12.30;51.30
33943;DHT22;66763;47.856;17.462;2023-03-23T05:29:56;12.20;50.80
33943;DHT22;66763;47.856;17.462;2023-03-23T05:32:24;12.30;50.80
33943;DHT22;66763;47.856;17.462;2023-03-23T05:34:57;12.20;50.60
33943;DHT22;66763;47.856;17.462;2023-03-23T05:37:23;12.30;50.60
33943;DHT22;66763;47.856;17.462;2023-03-23T05:39:49;12.30;50.70
33943;DHT22;66763;47.856;17.462;2023-03-23T05:42:21;12.30;50.90
33943;DHT22;66763;47.856;17.462;2023-03-23T05:44:47;12.30;50.90
33943;DHT22;66763;47.856;17.462;2023-03-23T05:47:13;12.20;50.80
33943;DHT22;66763;47.856;17.462;2023-03-23T05:49:38;12.30;51.00
33943;DHT22;66763;47.856;17.462;2023-03-23T05:52:04;12.30;50.90
33943;DHT22;66763;47.856;17.462;2023-03-23T05:54:29;12.30;50.90
33943;DHT22;66763;47.856;17.462;2023-03-23T05:56:55;12.20;50.90
33943;DHT22;66763;47.856;17.462;2023-03-23T05:59:20;12.30;50.90
33943;DHT22;66763;47.856;17.462;2023-03-23T06:01:46;12.30;50.90
33943;DHT22;66763;47.856;17.462;2023-03-23T06:04:12;12.20;50.80
33943;DHT22;66763;47.856;17.462;2023-03-23T06:06:39;12.20;50.80
33943;DHT22;66763;47.856;17.462;2023-03-23T06:09:06;12.30;50.80
33943;DHT22;66763;47.856;17.462;2023-03-23T06:11:32;12.20;50.80
33943;DHT22;66763;47.856;17.462;2023-03-23T06:13:58;12.30;50.90
33943;DHT22;66763;47.856;17.462;2023-03-23T06:16:23;12.20;50.80
33943;DHT22;66763;47.856;17.462;2023-03-23T06:18:49;12.20;50.70
33943;DHT22;66763;47.856;17.462;2023-03-23T06:21:15;12.30;50.70
33943;DHT22;66763;47.856;17.462;2023-03-23T06:23:43;12.30;50.80
33943;DHT22;66763;47.856;17.462;2023-03-23T06:26:09;12.20;50.70
33943;DHT22;66763;47.856;17.462;2023-03-23T06:28:35;12.30;50.70
33943;DHT22;66763;47.856;17.462;2023-03-23T06:31:01;12.30;50.70
33943;DHT22;66763;47.856;17.462;2023-03-23T06:33:27;12.30;50.70
33943;DHT22;66763;47.856;17.462;2023-03-23T06:35:52;12.30;50.70
33943;DHT22;66763;47.856;17.462;2023-03-23T06:38:19;12.30;50.70
33943;DHT22;66763;47.856;17.462;2023-03-23T06:40:44;12.30;50.70
33943;DHT22;66763;47.856;17.462;2023-03-23T06:43:12;12.30;50.70
33943;DHT22;66763;47.856;17.462;2023-03-23T06:45:38;12.30;50.70
33943;DHT22;66763;47.856;17.462;2023-03-23T06:48:04;12.30;50.70
33943;DHT22;66763;47.856;17.462;2023-03-23T06:50:30;12.30;50.70
33943;DHT22;66763;47.856;17.462;2023-03-23T06:52:55;12.30;50.70
33943;DHT22;66763;47.856;17.462;2023-03-23T06:55:21;12.30;50.60
33943;DHT22;66763;47.856;17.462;2023-03-23T06:57:46;12.30;50.70
33943;DHT22;66763;47.856;17.462;2023-03-23T07:00:12;12.30;50.60
33943;DHT22;66763;47.856;17.462;2023-03-23T07:02:39;12.30;50.70
33943;DHT22;66763;47.856;17.462;2023-03-23T07:05:05;12.30;50.70
33943;DHT22;66763;47.856;17.462;2023-03-23T07:07:30;12.30;50.70
33943;DHT22;66763;47.856;17.462;2023-03-23T07:09:56;12.30;50.60
33943;DHT22;66763;47.856;17.462;2023-03-23T07:12:22;12.30;50.60
33943;DHT22;66763;47.856;17.462;2023-03-23T07:14:47;12.30;50.60
33943;DHT22;66763;47.856;17.462;2023-03-23T07:17:13;12.30;50.60
33943;DHT22;66763;47.856;17.462;2023-03-23T07:19:39;12.30;50.60
33943;DHT22;66763;47.856;17.462;2023-03-23T07:22:06;12.30;50.60
33943;DHT22;66763;47.856;17.462;2023-03-23T07:24:32;12.30;50.70
33943;DHT22;66763;47.856;17.462;2023-03-23T07:26:57;12.30;50.70
33943;DHT22;66763;47.856;17.462;2023-03-23T07:29:23;12.30;50.70
33943;DHT22;66763;47.856;17.462;2023-03-23T07:31:49;12.30;50.60
33943;DHT22;66763;47.856;17.462;2023-03-23T07:34:14;12.30;50.60
33943;DHT22;66763;47.856;17.462;2023-03-23T07:36:40;12.30;50.60
33943;DHT22;66763;47.856;17.462;2023-03-23T07:39:05;12.30;50.60
33943;DHT22;66763;47.856;17.462;2023-03-23T07:41:32;12.30;50.60
33943;DHT22;66763;47.856;17.462;2023-03-23T07:43:57;12.30;50.60
33943;DHT22;66763;47.856;17.462;2023-03-23T07:46:23;12.30;50.60
33943;DHT22;66763;47.856;17.462;2023-03-23T07:48:49;12.30;50.60
33943;DHT22;66763;47.856;17.462;2023-03-23T07:51:14;12.30;51.20
33943;DHT22;66763;47.856;17.462;2023-03-23T07:53:42;12.30;50.60
33943;DHT22;66763;47.856;17.462;2023-03-23T07:56:12;12.30;50.70
33943;DHT22;66763;47.856;17.462;2023-03-23T07:58:42;12.30;50.60
33943;DHT22;66763;47.856;17.462;2023-03-23T08:01:09;12.30;50.70
33943;DHT22;66763;47.856;17.462;2023-03-23T08:03:35;12.30;50.70
33943;DHT22;66763;47.856;17.462;2023-03-23T08:06:00;12.30;50.70
33943;DHT22;66763;47.856;17.462;2023-03-23T08:08:26;12.30;50.70
33943;DHT22;66763;47.856;17.462;2023-03-23T08:10:51;12.30;50.70
33943;DHT22;66763;47.856;17.462;2023-03-23T08:13:17;12.30;50.70
33943;DHT22;66763;47.856;17.462;2023-03-23T08:15:43;12.30;50.70
33943;DHT22;66763;47.856;17.462;2023-03-23T08:18:09;12.30;50.70
33943;DHT22;66763;47.856;17.462;2023-03-23T08:20:35;12.30;50.70
33943;DHT22;66763;47.856;17.462;2023-03-23T08:23:02;12.30;50.70
33943;DHT22;66763;47.856;17.462;2023-03-23T08:25:28;12.30;50.70
33943;DHT22;66763;47.856;17.462;2023-03-23T08:27:56;12.30;50.70
33943;DHT22;66763;47.856;17.462;2023-03-23T08:30:22;12.30;50.70
33943;DHT22;66763;47.856;17.462;2023-03-23T08:32:48;12.30;50.70
33943;DHT22;66763;47.856;17.462;2023-03-23T08:35:14;12.30;50.70
33943;DHT22;66763;47.856;17.462;2023-03-23T08:37:41;12.30;50.70
33943;DHT22;66763;47.856;17.462;2023-03-23T08:40:10;12.30;50.70
33943;DHT22;66763;47.856;17.462;2023-03-23T08:42:43;12.30;50.70
33943;DHT22;66763;47.856;17.462;2023-03-23T08:45:09;12.30;50.70
33943;DHT22;66763;47.856;17.462;2023-03-23T08:47:35;12.30;50.70
33943;DHT22;66763;47.856;17.462;2023-03-23T08:50:02;12.30;50.80
33943;DHT22;66763;47.856;17.462;2023-03-23T08:52:28;12.30;50.80
33943;DHT22;66763;47.856;17.462;2023-03-23T08:54:54;12.30;50.80
33943;DHT22;66763;47.856;17.462;2023-03-23T08:57:20;12.30;50.80
33943;DHT22;66763;47.856;17.462;2023-03-23T08:59:45;12.30;50.70
33943;DHT22;66763;47.856;17.462;2023-03-23T09:02:11;12.30;50.80
33943;DHT22;66763;47.856;17.462;2023-03-23T09:04:40;12.30;50.70
33943;DHT22;66763;47.856;17.462;2023-03-23T09:07:10;12.30;50.70
33943;DHT22;66763;47.856;17.462;2023-03-23T09:09:37;12.30;50.70
33943;DHT22;66763;47.856;17.462;2023-03-23T09:12:05;12.30;50.70
33943;DHT22;66763;47.856;17.462;2023-03-23T09:14:31;12.30;50.70
33943;DHT22;66763;47.856;17.462;2023-03-23T09:16:56;12.30;50.80
33943;DHT22;66763;47.856;17.462;2023-03-23T09:19:22;12.30;50.80
33943;DHT22;66763;47.856;17.462;2023-03-23T09:21:48;12.30;50.80
33943;DHT22;66763;47.856;17.462;2023-03-23T09:24:14;12.30;50.70
33943;DHT22;66763;47.856;17.462;2023-03-23T09:26:40;12.40;50.80
33943;DHT22;66763;47.856;17.462;2023-03-23T09:29:06;12.40;50.80
33943;DHT22;66763;47.856;17.462;2023-03-23T09:31:31;12.40;50.80
33943;DHT22;66763;47.856;17.462;2023-03-23T09:33:57;12.40;50.80
33943;DHT22;66763;47.856;17.462;2023-03-23T09:36:24;12.40;50.80
33943;DHT22;66763;47.856;17.462;2023-03-23T09:38:51;12.40;50.80
33943;DHT22;66763;47.856;17.462;2023-03-23T09:48:58;12.40;50.80
33943;DHT22;66763;47.856;17.462;2023-03-23T09:56:46;12.40;50.80
33943;DHT22;66763;47.856;17.462;2023-03-23T09:59:17;12.30;50.80
33943;DHT22;66763;47.856;17.462;2023-03-23T10:01:45;12.40;50.90
33943;DHT22;66763;47.856;17.462;2023-03-23T10:04:14;12.40;50.90
33943;DHT22;66763;47.856;17.462;2023-03-23T10:06:41;12.40;50.80
33943;DHT22;66763;47.856;17.462;2023-03-23T10:09:08;12.40;50.80
33943;DHT22;66763;47.856;17.462;2023-03-23T10:11:44;12.40;50.80
33943;DHT22;66763;47.856;17.462;2023-03-23T10:22:34;12.40;50.80
33943;DHT22;66763;47.856;17.462;2023-03-23T10:25:06;12.40;50.80
33943;DHT22;66763;47.856;17.462;2023-03-23T10:30:13;12.40;50.80
33943;DHT22;66763;47.856;17.462;2023-03-23T10:32:44;12.40;50.80
33943;DHT22;66763;47.856;17.462;2023-03-23T10:35:11;12.40;50.80
33943;DHT22;66763;47.856;17.462;2023-03-23T10:37:45;12.40;50.80
33943;DHT22;66763;47.856;17.462;2023-03-23T10:40:16;12.40;50.80
33943;DHT22;66763;47.856;17.462;2023-03-23T10:42:43;12.40;50.80
33943;DHT22;66763;47.856;17.462;2023-03-23T10:45:30;12.40;50.80
33943;DHT22;66763;47.856;17.462;2023-03-23T10:50:35;12.40;50.90
33943;DHT22;66763;47.856;17.462;2023-03-23T10:53:04;12.40;50.80
33943;DHT22;66763;47.856;17.462;2023-03-23T10:55:37;12.40;50.80
33943;DHT22;66763;47.856;17.462;2023-03-23T10:58:08;12.40;50.90
33943;DHT22;66763;47.856;17.462;2023-03-23T11:00:39;12.40;50.90
33943;DHT22;66763;47.856;17.462;2023-03-23T11:05:42;12.40;50.90
33943;DHT22;66763;47.856;17.462;2023-03-23T11:08:12;12.40;50.90
33943;DHT22;66763;47.856;17.462;2023-03-23T11:10:40;12.40;50.90
33943;DHT22;66763;47.856;17.462;2023-03-23T11:13:10;12.40;50.90
33943;DHT22;66763;47.856;17.462;2023-03-23T11:15:38;12.40;50.90
33943;DHT22;66763;47.856;17.462;2023-03-23T11:18:05;12.40;50.90
33943;DHT22;66763;47.856;17.462;2023-03-23T11:20:36;12.40;50.90
33943;DHT22;66763;47.856;17.462;2023-03-23T11:26:10;12.40;50.90
33943;DHT22;66763;47.856;17.462;2023-03-23T11:28:43;12.40;50.90
33943;DHT22;66763;47.856;17.462;2023-03-23T11:31:10;12.40;50.90
33943;DHT22;66763;47.856;17.462;2023-03-23T11:33:37;12.40;51.00
33943;DHT22;66763;47.856;17.462;2023-03-23T11:36:04;12.40;51.00
33943;DHT22;66763;47.856;17.462;2023-03-23T11:38:31;12.40;51.00
33943;DHT22;66763;47.856;17.462;2023-03-23T11:40:58;12.40;51.00
33943;DHT22;66763;47.856;17.462;2023-03-23T11:43:24;12.40;51.00
33943;DHT22;66763;47.856;17.462;2023-03-23T11:48:38;12.40;51.00
33943;DHT22;66763;47.856;17.462;2023-03-23T11:51:08;12.40;51.00
33943;DHT22;66763;47.856;17.462;2023-03-23T11:56:37;12.40;51.00
33943;DHT22;66763;47.856;17.462;2023-03-23T11:59:05;12.40;51.10
33943;DHT22;66763;47.856;17.462;2023-03-23T12:06:44;12.40;51.70
33943;DHT22;66763;47.856;17.462;2023-03-23T12:12:08;12.40;51.70
33943;DHT22;66763;47.856;17.462;2023-03-23T12:27:45;12.40;51.10
33943;DHT22;66763;47.856;17.462;2023-03-23T12:40:32;12.50;51.20
33943;DHT22;66763;47.856;17.462;2023-03-23T12:43:15;12.40;51.20
33943;DHT22;66763;47.856;17.462;2023-03-23T12:45:47;12.50;51.30
33943;DHT22;66763;47.856;17.462;2023-03-23T12:48:28;12.40;51.20
33943;DHT22;66763;47.856;17.462;2023-03-23T12:53:27;12.50;51.30
33943;DHT22;66763;47.856;17.462;2023-03-23T12:56:08;12.50;51.20
33943;DHT22;66763;47.856;17.462;2023-03-23T12:58:42;12.50;51.30
33943;DHT22;66763;47.856;17.462;2023-03-23T13:01:16;12.50;51.30
33943;DHT22;66763;47.856;17.462;2023-03-23T13:06:38;12.50;51.30
33943;DHT22;66763;47.856;17.462;2023-03-23T13:11:36;12.50;51.30
33943;DHT22;66763;47.856;17.462;2023-03-23T13:19:21;12.50;51.30
33943;DHT22;66763;47.856;17.462;2023-03-23T13:24:21;12.50;51.30
33943;DHT22;66763;47.856;17.462;2023-03-23T13:26:49;12.50;51.40
33943;DHT22;66763;47.856;17.462;2023-03-23T13:29:18;12.50;51.40
33943;DHT22;66763;47.856;17.462;2023-03-23T13:31:45;12.50;51.30
33943;DHT22;66763;47.856;17.462;2023-03-23T13:34:30;12.50;51.40
33943;DHT22;66763;47.856;17.462;2023-03-23T13:37:40;12.50;51.30
33943;DHT22;66763;47.856;17.462;2023-03-23T13:39:52;12.50;51.40
33943;DHT22;66763;47.856;17.462;2023-03-23T13:42:22;12.50;51.40
33943;DHT22;66763;47.856;17.462;2023-03-23T13:49:52;12.50;51.40
33943;DHT22;66763;47.856;17.462;2023-03-23T13:57:49;12.50;51.40
33943;DHT22;66763;47.856;17.462;2023-03-23T14:07:54;12.50;51.30
33943;DHT22;66763;47.856;17.462;2023-03-23T14:10:21;12.50;51.40
33943;DHT22;66763;47.856;17.462;2023-03-23T14:12:48;12.50;51.30
33943;DHT22;66763;47.856;17.462;2023-03-23T14:15:14;12.50;51.30
33943;DHT22;66763;47.856;17.462;2023-03-23T14:17:41;12.50;51.30
33943;DHT22;66763;47.856;17.462;2023-03-23T14:20:29;12.50;51.30
33943;DHT22;66763;47.856;17.462;2023-03-23T14:22:55;12.50;51.90
33943;DHT22;66763;47.856;17.462;2023-03-23T14:25:21;12.50;51.30
33943;DHT22;66763;47.856;17.462;2023-03-23T14:27:50;12.50;51.30
33943;DHT22;66763;47.856;17.462;2023-03-23T14:30:18;12.50;51.30
33943;DHT22;66763;47.856;17.462;2023-03-23T14:32:44;12.50;51.30
33943;DHT22;66763;47.856;17.462;2023-03-23T14:35:24;12.50;51.30
33943;DHT22;66763;47.856;17.462;2023-03-23T14:37:51;12.50;51.40
33943;DHT22;66763;47.856;17.462;2023-03-23T14:40:17;12.50;51.30
33943;DHT22;66763;47.856;17.462;2023-03-23T14:42:43;12.50;51.30
33943;DHT22;66763;47.856;17.462;2023-03-23T14:45:10;12.50;51.30
33943;DHT22;66763;47.856;17.462;2023-03-23T14:47:38;12.50;51.30
33943;DHT22;66763;47.856;17.462;2023-03-23T14:50:07;12.60;51.40
33943;DHT22;66763;47.856;17.462;2023-03-23T14:52:47;12.60;51.40
33943;DHT22;66763;47.856;17.462;2023-03-23T14:55:14;12.50;51.40
33943;DHT22;66763;47.856;17.462;2023-03-23T14:57:40;12.50;51.40
33943;DHT22;66763;47.856;17.462;2023-03-23T15:00:11;12.50;51.40
33943;DHT22;66763;47.856;17.462;2023-03-23T15:02:38;12.60;51.40
33943;DHT22;66763;47.856;17.462;2023-03-23T15:05:08;12.60;51.40
33943;DHT22;66763;47.856;17.462;2023-03-23T15:07:35;12.50;51.40
33943;DHT22;66763;47.856;17.462;2023-03-23T15:10:04;12.50;51.40
33943;DHT22;66763;47.856;17.462;2023-03-23T15:12:30;12.60;51.40
33943;DHT22;66763;47.856;17.462;2023-03-23T15:14:57;12.50;51.40
33943;DHT22;66763;47.856;17.462;2023-03-23T15:17:24;12.60;51.50
33943;DHT22;66763;47.856;17.462;2023-03-23T15:19:50;12.60;51.50
33943;DHT22;66763;47.856;17.462;2023-03-23T15:22:27;12.60;51.50
33943;DHT22;66763;47.856;17.462;2023-03-23T15:25:01;12.50;51.40
33943;DHT22;66763;47.856;17.462;2023-03-23T15:27:28;12.60;51.50
33943;DHT22;66763;47.856;17.462;2023-03-23T15:29:55;12.60;51.50
33943;DHT22;66763;47.856;17.462;2023-03-23T15:34:50;12.60;51.40
33943;DHT22;66763;47.856;17.462;2023-03-23T15:37:41;12.60;51.40
33943;DHT22;66763;47.856;17.462;2023-03-23T15:43:16;12.60;51.40
33943;DHT22;66763;47.856;17.462;2023-03-23T15:45:58;12.60;51.40
33943;DHT22;66763;47.856;17.462;2023-03-23T15:48:51;12.60;51.40
33943;DHT22;66763;47.856;17.462;2023-03-23T15:51:14;12.60;51.40
33943;DHT22;66763;47.856;17.462;2023-03-23T15:53:40;12.60;51.40
33943;DHT22;66763;47.856;17.462;2023-03-23T15:56:07;12.50;51.30
33943;DHT22;66763;47.856;17.462;2023-03-23T15:58:33;12.60;51.40
33943;DHT22;66763;47.856;17.462;2023-03-23T16:01:01;12.50;51.30
33943;DHT22;66763;47.856;17.462;2023-03-23T16:03:29;12.60;51.30
33943;DHT22;66763;47.856;17.462;2023-03-23T16:05:56;12.60;51.40
33943;DHT22;66763;47.856;17.462;2023-03-23T16:08:24;12.60;51.90
33943;DHT22;66763;47.856;17.462;2023-03-23T16:10:50;12.60;51.30
33943;DHT22;66763;47.856;17.462;2023-03-23T16:13:16;12.60;51.30
33943;DHT22;66763;47.856;17.462;2023-03-23T16:15:43;12.60;51.30
33943;DHT22;66763;47.856;17.462;2023-03-23T16:18:17;12.60;51.30
33943;DHT22;66763;47.856;17.462;2023-03-23T16:20:43;12.60;51.30
33943;DHT22;66763;47.856;17.462;2023-03-23T16:23:08;12.60;51.30
33943;DHT22;66763;47.856;17.462;2023-03-23T16:25:34;12.60;51.30
33943;DHT22;66763;47.856;17.462;2023-03-23T16:27:59;12.60;51.30
33943;DHT22;66763;47.856;17.462;2023-03-23T16:30:26;12.60;51.30
33943;DHT22;66763;47.856;17.462;2023-03-23T16:32:52;12.60;51.30
33943;DHT22;66763;47.856;17.462;2023-03-23T16:35:18;12.60;51.30
33943;DHT22;66763;47.856;17.462;2023-03-23T16:37:48;12.60;51.30
33943;DHT22;66763;47.856;17.462;2023-03-23T16:40:14;12.60;51.30
33943;DHT22;66763;47.856;17.462;2023-03-23T16:42:40;12.60;51.30
33943;DHT22;66763;47.856;17.462;2023-03-23T16:45:06;12.60;51.30
33943;DHT22;66763;47.856;17.462;2023-03-23T16:47:31;12.60;51.30
33943;DHT22;66763;47.856;17.462;2023-03-23T16:49:57;12.60;51.30
33943;DHT22;66763;47.856;17.462;2023-03-23T16:52:22;12.60;51.30
33943;DHT22;66763;47.856;17.462;2023-03-23T16:54:48;12.50;51.20
33943;DHT22;66763;47.856;17.462;2023-03-23T16:57:14;12.60;51.30
33943;DHT22;66763;47.856;17.462;2023-03-23T16:59:41;12.60;51.30
33943;DHT22;66763;47.856;17.462;2023-03-23T17:02:08;12.60;51.30
33943;DHT22;66763;47.856;17.462;2023-03-23T17:04:34;12.60;51.30
33943;DHT22;66763;47.856;17.462;2023-03-23T17:06:59;12.60;51.30
33943;DHT22;66763;47.856;17.462;2023-03-23T17:09:25;12.60;51.30
33943;DHT22;66763;47.856;17.462;2023-03-23T17:11:51;12.60;51.30
33943;DHT22;66763;47.856;17.462;2023-03-23T17:14:17;12.60;51.30
33943;DHT22;66763;47.856;17.462;2023-03-23T17:16:43;12.60;51.30
33943;DHT22;66763;47.856;17.462;2023-03-23T17:19:08;12.60;51.30
33943;DHT22;66763;47.856;17.462;2023-03-23T17:21:34;12.60;51.30